Time;durP1;ratioP1;P1;durP2;ratioP2;P2;SDS_P1;SDS_P2;PMS_P1;PMS_P2;Temp;Humidity;BMP_temperature;BMP_pressure;BME280_temperature;BME280_humidity;BME280_pressure;Samples;Min_cycle;Max_cycle;Signal;HPM_P1;HPM_P2
2023/10/27 00:04:19;;;;;;;4.45;1.25;;;;;;;19.60;100.00;99196.34;10287610;28;20113;-83
2023/10/27 00:09:21;;;;;;;1.65;0.50;;;;;;;18.85;100.00;99193.84;10284616;28;20125;-83
2023/10/27 00:14:24;;;;;;;0.43;0.43;;;;;;;19.16;100.00;99200.59;10286560;28;20054;-83
2023/10/27 00:19:25;;;;;;;1.30;0.65;;;;;;;19.43;100.00;99181.34;10297884;28;20051;-83
2023/10/27 00:24:27;;;;;;;3.95;2.13;;;;;;;18.64;100.00;99185.03;10295989;28;20050;-83
2023/10/27 00:29:28;;;;;;;1.98;0.98;;;;;;;18.94;100.00;99189.22;10291039;28;20055;-83
2023/10/27 00:34:30;;;;;;;0.57;0.47;;;;;;;18.89;100.00;99184.13;10275893;28;20053;-83
2023/10/27 00:39:32;;;;;;;1.00;0.93;;;;;;;20.16;100.00;99179.34;10288831;28;20043;-83
2023/10/27 00:44:34;;;;;;;0.75;0.75;;;;;;;19.61;100.00;99187.59;10289631;28;20046;-83
2023/10/27 00:49:36;;;;;;;0.90;0.80;;;;;;;20.05;100.00;99177.16;10272462;28;20053;-83
2023/10/27 00:54:39;;;;;;;0.80;0.52;;;;;;;19.91;100.00;99171.66;10300097;28;20043;-83
2023/10/27 00:59:41;;;;;;;0.85;0.85;;;;;;;19.69;100.00;99174.25;10298513;28;20039;-83
2023/10/27 01:04:43;;;;;;;1.20;0.40;;;;;;;18.64;100.00;99174.59;10298350;28;20046;-83
2023/10/27 01:09:45;;;;;;;1.92;1.25;;;;;;;18.35;100.00;99179.06;10297054;28;20137;-84
2023/10/27 01:14:47;;;;;;;0.77;0.73;;;;;;;19.28;100.00;99164.50;10297503;28;20042;-83
2023/10/27 01:19:48;;;;;;;1.50;1.40;;;;;;;19.92;100.00;99160.28;10295209;28;20049;-85
2023/10/27 01:24:50;;;;;;;1.85;0.90;;;;;;;20.14;100.00;99157.66;10290629;28;20043;-83
2023/10/27 01:29:52;;;;;;;2.17;0.52;;;;;;;19.80;100.00;99156.38;10308545;28;20425;-84
2023/10/27 01:34:53;;;;;;;0.70;0.70;;;;;;;19.88;100.00;99164.78;10305165;28;20043;-83
2023/10/27 01:39:56;;;;;;;1.90;1.08;;;;;;;18.44;100.00;99161.38;10285230;28;20081;-83
2023/10/27 01:44:58;;;;;;;1.08;0.85;;;;;;;19.79;100.00;99149.44;10305475;28;20094;-83
2023/10/27 01:49:59;;;;;;;1.30;1.08;;;;;;;19.78;100.00;99150.34;10294393;28;20046;-83
2023/10/27 01:55:01;;;;;;;1.38;0.57;;;;;;;19.15;100.00;99159.72;10298501;28;20093;-83
2023/10/27 02:00:03;;;;;;;1.33;0.88;;;;;;;18.67;100.00;99143.16;10298820;28;20131;-84
2023/10/27 02:05:12;;;;;;;2.10;1.08;;;;;;;20.04;100.00;99135.41;10291188;28;20065;-83
2023/10/27 02:10:14;;;;;;;2.60;1.20;;;;;;;18.65;100.00;99137.16;10293318;28;20410;-83
2023/10/27 02:15:16;;;;;;;2.30;1.38;;;;;;;19.22;100.00;99144.69;10282492;28;20560;-83
2023/10/27 02:20:17;;;;;;;1.13;0.75;;;;;;;19.37;100.00;99138.03;10291250;28;20045;-83
2023/10/27 02:25:19;;;;;;;1.35;0.80;;;;;;;20.02;100.00;99145.94;10298607;28;20776;-85
2023/10/27 02:30:20;;;;;;;1.50;1.13;;;;;;;20.12;100.00;99142.03;10306947;28;20054;-84
2023/10/27 02:35:25;;;;;;;1.13;0.82;;;;;;;19.41;100.00;99143.97;10304575;28;20086;-83
2023/10/27 02:40:27;;;;;;;0.40;0.40;;;;;;;20.11;100.00;99136.88;10295169;28;20047;-84
2023/10/27 02:45:29;;;;;;;1.60;0.95;;;;;;;20.37;100.00;99134.91;10282458;28;20047;-83
2023/10/27 02:50:31;;;;;;;0.43;0.40;;;;;;;19.57;100.00;99139.03;10307661;28;20046;-83
2023/10/27 02:55:34;;;;;;;0.95;0.68;;;;;;;20.29;100.00;99136.06;10280319;28;20039;-83
2023/10/27 03:00:41;;;;;;;0.60;0.43;;;;;;;20.22;100.00;99137.25;10287555;28;20050;-83
2023/10/27 03:05:43;;;;;;;1.13;0.50;;;;;;;19.99;100.00;99124.31;10290021;28;20054;-83
2023/10/27 03:10:44;;;;;;;0.20;0.20;;;;;;;19.50;100.00;99125.34;10275634;28;20102;-82
2023/10/27 03:15:46;;;;;;;0.45;0.25;;;;;;;18.91;100.00;99124.09;10274404;28;20490;-83
2023/10/27 03:20:53;;;;;;;1.05;0.57;;;;;;;19.02;100.00;99127.16;10303995;28;20053;-83
2023/10/27 03:25:55;;;;;;;0.70;0.38;;;;;;;19.92;100.00;99113.25;10289533;28;20498;-82
2023/10/27 03:30:57;;;;;;;0.98;0.47;;;;;;;19.18;100.00;99119.59;10278909;28;20050;-83
2023/10/27 03:35:59;;;;;;;0.77;0.70;;;;;;;20.11;100.00;99113.34;10298401;28;20051;-83
2023/10/27 03:41:01;;;;;;;1.02;0.73;;;;;;;19.31;100.00;99107.81;10296771;28;20121;-83
2023/10/27 03:46:02;;;;;;;0.63;0.50;;;;;;;19.56;100.00;99111.19;10300805;28;20502;-83
2023/10/27 03:51:05;;;;;;;1.45;0.55;;;;;;;19.95;100.00;99108.75;10289770;28;20042;-83
2023/10/27 03:56:06;;;;;;;1.48;0.95;;;;;;;19.11;100.00;99105.09;10292427;28;20043;-83
2023/10/27 04:01:09;;;;;;;1.15;0.70;;;;;;;19.13;100.00;99106.75;10288324;28;20056;-83
2023/10/27 04:06:11;;;;;;;1.00;0.88;;;;;;;19.45;100.00;99101.19;10271748;28;20050;-82
2023/10/27 04:11:13;;;;;;;1.10;0.77;;;;;;;20.31;100.00;99095.94;10284522;28;20058;-83
2023/10/27 04:16:14;;;;;;;1.17;0.38;;;;;;;19.33;100.00;99092.91;10283131;28;20057;-83
2023/10/27 04:21:16;;;;;;;1.42;1.25;;;;;;;19.07;100.00;99098.28;10285374;28;20070;-85
2023/10/27 04:26:17;;;;;;;1.88;0.68;;;;;;;19.40;100.00;99090.06;10267943;28;20046;-84
2023/10/27 04:31:20;;;;;;;0.95;0.88;;;;;;;18.87;100.00;99092.88;10275803;28;20047;-84
2023/10/27 04:36:22;;;;;;;0.95;0.65;;;;;;;18.95;100.00;99097.84;10284932;28;20043;-84
2023/10/27 04:41:24;;;;;;;0.60;0.60;;;;;;;19.83;100.00;99088.34;10296899;28;20125;-85
2023/10/27 04:46:26;;;;;;;0.70;0.55;;;;;;;18.66;100.00;99094.50;10298141;28;20046;-85
2023/10/27 04:51:28;;;;;;;1.05;0.75;;;;;;;19.08;100.00;99092.16;10289758;28;20049;-84
2023/10/27 04:56:29;;;;;;;2.42;0.57;;;;;;;19.01;100.00;99089.81;10287215;28;20098;-84
2023/10/27 05:01:31;;;;;;;1.83;0.73;;;;;;;18.91;100.00;99079.75;10274399;28;20054;-84
2023/10/27 05:06:33;;;;;;;0.03;0.03;;;;;;;19.56;100.00;99075.47;10288150;28;20054;-84
2023/10/27 05:11:35;;;;;;;0.70;0.52;;;;;;;20.03;100.00;99078.81;10265544;28;20106;-84
2023/10/27 05:16:36;;;;;;;0.22;0.22;;;;;;;20.05;100.00;99077.00;10284513;28;20035;-84
2023/10/27 05:21:38;;;;;;;4.28;1.70;;;;;;;19.56;100.00;99079.84;10281537;28;20106;-84
2023/10/27 05:26:39;;;;;;;1.70;0.52;;;;;;;19.52;100.00;99076.53;10282523;28;20060;-84
2023/10/27 05:31:42;;;;;;;1.33;0.80;;;;;;;19.61;100.00;99073.53;10283258;28;20042;-84
2023/10/27 05:36:44;;;;;;;0.60;0.60;;;;;;;19.11;100.00;99071.16;10284993;28;20138;-84
2023/10/27 05:41:46;;;;;;;1.00;0.77;;;;;;;19.23;100.00;99073.31;10274016;28;20849;-84
2023/10/27 05:46:48;;;;;;;1.30;0.60;;;;;;;18.62;100.00;99066.00;10289999;28;20498;-84
2023/10/27 05:51:51;;;;;;;2.13;0.73;;;;;;;18.86;100.00;99074.69;10290414;28;20105;-84
2023/10/27 05:56:52;;;;;;;0.88;0.60;;;;;;;18.99;100.00;99075.94;10267450;28;20047;-84
2023/10/27 06:01:54;;;;;;;1.20;1.05;;;;;;;18.57;100.00;99074.00;10289938;28;20473;-84
2023/10/27 06:07:18;;;;;;;0.45;0.45;;;;;;;18.87;100.00;99073.78;10297668;28;20126;-84
2023/10/27 06:12:19;;;;;;;0.90;0.40;;;;;;;18.96;100.00;99076.06;10288117;28;20066;-84
2023/10/27 06:17:21;;;;;;;1.25;0.73;;;;;;;19.49;100.00;99079.25;10280040;28;20458;-84
2023/10/27 06:22:22;;;;;;;1.20;0.63;;;;;;;19.73;100.00;99071.31;10282774;28;20054;-84
2023/10/27 06:27:24;;;;;;;0.55;0.30;;;;;;;19.92;100.00;99077.50;10275468;28;20411;-84
2023/10/27 06:32:25;;;;;;;1.40;0.32;;;;;;;19.62;100.00;99080.44;10282077;28;20054;-84
2023/10/27 06:37:27;;;;;;;0.45;0.45;;;;;;;19.32;100.00;99079.91;10285073;28;20588;-84
2023/10/27 06:42:29;;;;;;;0.20;0.20;;;;;;;19.50;100.00;99083.56;10288013;28;20082;-84
2023/10/27 06:47:30;;;;;;;0.15;0.15;;;;;;;19.22;100.00;99082.03;10267179;28;20070;-84
2023/10/27 06:52:33;;;;;;;1.73;0.95;;;;;;;19.88;100.00;99081.16;10289927;28;20047;-84
2023/10/27 06:57:35;;;;;;;1.20;0.50;;;;;;;19.47;100.00;99081.91;10275718;28;20050;-83
2023/10/27 07:02:36;;;;;;;0.38;0.32;;;;;;;19.91;100.00;99081.06;10288250;28;20461;-84
2023/10/27 07:07:56;;;;;;;1.17;0.28;;;;;;;19.97;100.00;99087.78;10286468;28;20133;-84
2023/10/27 07:12:58;;;;;;;0.17;0.17;;;;;;;19.36;100.00;99084.09;10284047;28;20125;-84
2023/10/27 07:17:59;;;;;;;0.57;0.47;;;;;;;19.82;100.00;99081.41;10298287;28;20054;-83
2023/10/27 07:23:01;;;;;;;0.30;0.30;;;;;;;19.55;100.00;99083.38;10267502;28;20422;-85
2023/10/27 07:28:02;;;;;;;0.85;0.80;;;;;;;19.75;100.00;99085.19;10284945;28;20075;-84
2023/10/27 07:33:04;;;;;;;0.68;0.35;;;;;;;20.24;100.00;99093.59;10286912;28;20035;-84
2023/10/27 07:38:06;;;;;;;0.95;0.30;;;;;;;20.13;100.00;99090.59;10278735;28;20488;-84
2023/10/27 07:43:08;;;;;;;0.75;0.63;;;;;;;19.47;100.00;99091.53;10273977;28;20592;-84
2023/10/27 07:48:09;;;;;;;0.77;0.52;;;;;;;19.43;100.00;99095.16;10268253;28;20051;-84
2023/10/27 07:53:11;;;;;;;0.98;0.85;;;;;;;19.55;100.00;99094.66;10281912;28;20069;-85
2023/10/27 07:58:13;;;;;;;1.63;0.52;;;;;;;20.10;100.00;99090.72;10268207;28;20051;-83
2023/10/27 08:03:14;;;;;;;0.22;0.22;;;;;;;19.27;100.00;99100.16;10283706;28;20047;-84
2023/10/27 08:08:17;;;;;;;1.38;0.13;;;;;;;19.72;100.00;99096.63;10283696;28;20121;-84
2023/10/27 08:13:20;;;;;;;0.38;0.15;;;;;;;19.57;100.00;99098.06;10267202;28;20059;-84
2023/10/27 08:18:22;;;;;;;2.50;0.95;;;;;;;19.28;100.00;99107.91;10299139;28;20046;-85
2023/10/27 08:23:24;;;;;;;0.38;0.20;;;;;;;19.42;100.00;99096.06;10299179;28;20070;-85
2023/10/27 08:28:27;;;;;;;0.63;0.45;;;;;;;18.74;100.00;99104.69;10296680;28;20304;-85
2023/10/27 08:33:28;;;;;;;0.35;0.17;;;;;;;20.41;100.00;99095.47;10286930;28;20049;-84
2023/10/27 08:38:32;;;;;;;0.52;0.28;;;;;;;19.95;100.00;99095.69;10290214;28;20043;-84
2023/10/27 08:43:34;;;;;;;0.13;0.13;;;;;;;19.94;100.00;99099.22;10287043;28;20125;-84
2023/10/27 08:48:36;;;;;;;5.35;0.45;;;;;;;20.13;100.00;99091.44;10284784;28;20054;-84
2023/10/27 08:53:42;;;;;;;0.08;0.08;;;;;;;19.78;100.00;99101.59;10286608;28;20046;-85
2023/10/27 08:58:49;;;;;;;0.77;0.35;;;;;;;19.61;100.00;99097.06;10264702;28;20073;-83
2023/10/27 09:04:11;;;;;;;1.08;0.80;;;;;;;19.94;100.00;99096.59;10279243;28;20053;-84
2023/10/27 09:09:14;;;;;;;0.20;0.20;;;;;;;20.25;100.00;99105.75;10266451;28;20070;-83
2023/10/27 09:14:26;;;;;;;0.05;0.03;;;;;;;19.83;100.00;99109.25;10288774;28;20506;-84
2023/10/27 09:19:28;;;;;;;1.45;0.88;;;;;;;19.65;100.00;99106.44;10274265;28;20090;-83
2023/10/27 09:24:30;;;;;;;4.22;0.75;;;;;;;19.63;100.00;99103.03;10296646;28;20043;-83
2023/10/27 09:29:42;;;;;;;0.17;0.17;;;;;;;20.18;100.00;99104.31;10287503;28;20812;-84
2023/10/27 09:34:44;;;;;;;1.13;0.30;;;;;;;20.91;100.00;99109.03;10281973;28;20407;-85
2023/10/27 09:39:46;;;;;;;0.65;0.50;;;;;;;20.71;100.00;99112.50;10295761;28;20053;-85
2023/10/27 09:45:11;;;;;;;0.35;0.17;;;;;;;20.39;100.00;99117.38;10278286;28;20043;-85
2023/10/27 09:50:15;;;;;;;0.47;0.30;;;;;;;21.15;100.00;99114.91;10288919;28;20077;-85
2023/10/27 09:55:19;;;;;;;0.63;0.40;;;;;;;21.84;100.00;99116.00;10290423;28;20050;-85
2023/10/27 10:00:31;;;;;;;0.30;0.20;;;;;;;20.81;100.00;99123.44;10273962;28;20140;-85
2023/10/27 10:06:13;;;;;;;0.08;0.08;;;;;;;20.87;100.00;99124.03;10277541;28;20054;-85
2023/10/27 10:11:17;;;;;;;4.32;0.40;;;;;;;21.96;100.00;99111.06;10289847;28;20816;-85
2023/10/27 10:16:19;;;;;;;0.95;0.30;;;;;;;21.52;100.00;99125.41;10285367;28;20058;-85
2023/10/27 10:21:32;;;;;;;4.05;0.50;;;;;;;21.01;100.00;99125.16;10290107;28;20430;-84
2023/10/27 10:27:02;;;;;;;0.25;0.25;;;;;;;21.30;100.00;99130.81;10268179;28;20252;-85
2023/10/27 10:32:32;;;;;;;0.90;0.85;;;;;;;21.39;100.00;99130.38;10301270;28;20055;-85
2023/10/27 10:37:34;;;;;;;;;;;;;;;19.69;100.00;99129.84;10280304;28;20527;-83
2023/10/27 10:43:14;;;;;;;0.43;0.40;;;;;;;20.65;100.00;99123.25;10296293;28;20262;-85
2023/10/27 10:48:22;;;;;;;1.03;0.70;;;;;;;20.78;100.00;99129.66;10286848;28;20070;-85
2023/10/27 10:53:26;;;;;;;0.35;0.35;;;;;;;21.30;100.00;99126.41;10290227;28;20085;-84
2023/10/27 10:58:30;;;;;;;1.00;0.63;;;;;;;21.52;100.00;99131.50;10272762;28;20059;-84
2023/10/27 11:03:33;;;;;;;0.63;0.52;;;;;;;21.07;100.00;99130.94;10281993;28;20066;-85
2023/10/27 11:08:37;;;;;;;0.82;0.38;;;;;;;21.76;100.00;99131.28;10288305;28;20070;-84
2023/10/27 11:13:41;;;;;;;0.20;0.20;;;;;;;21.27;100.00;99136.19;10287800;28;20526;-85
2023/10/27 11:18:49;;;;;;;0.82;0.45;;;;;;;21.39;100.00;99136.47;10255513;28;20047;-85
2023/10/27 11:23:51;;;;;;;0.88;0.82;;;;;;;21.36;100.00;99125.28;10287914;28;20387;-86
2023/10/27 11:28:54;;;;;;;0.43;0.43;;;;;;;22.03;100.00;99115.94;10284529;28;20355;-85
2023/10/27 11:34:05;;;;;;;0.77;0.77;;;;;;;21.11;100.00;99123.78;10301519;28;20073;-86
2023/10/27 11:39:14;;;;;;;0.38;0.38;;;;;;;21.14;100.00;99126.28;10299608;28;20063;-85
2023/10/27 11:44:17;;;;;;;0.30;0.20;;;;;;;21.59;100.00;99120.75;10294979;28;20055;-85
2023/10/27 11:49:18;;;;;;;0.70;0.45;;;;;;;21.38;100.00;99128.69;10290196;28;20062;-85
2023/10/27 11:54:21;;;;;;;0.00;0.00;;;;;;;21.62;100.00;99121.44;10290131;28;20500;-85
2023/10/27 11:59:26;;;;;;;0.20;0.15;;;;;;;22.14;100.00;99125.91;10286513;28;20047;-84
2023/10/27 12:04:28;;;;;;;0.40;0.22;;;;;;;21.80;100.00;99135.41;10285809;28;20050;-85
2023/10/27 12:09:30;;;;;;;0.25;0.20;;;;;;;22.65;100.00;99130.34;10268516;28;20054;-85
2023/10/27 12:14:31;;;;;;;0.35;0.35;;;;;;;22.06;100.00;99129.81;10284226;28;20058;-84
2023/10/27 12:19:33;;;;;;;0.95;0.65;;;;;;;21.55;100.00;99136.59;10268938;28;20062;-85
2023/10/27 12:24:34;;;;;;;0.52;0.30;;;;;;;21.55;100.00;99144.47;10268153;28;20050;-84
2023/10/27 12:29:36;;;;;;;1.55;1.45;;;;;;;21.07;100.00;99135.34;10279650;28;21099;-84
2023/10/27 12:34:38;;;;;;;0.50;0.30;;;;;;;21.60;100.00;99135.53;10264077;28;20649;-85
2023/10/27 12:39:42;;;;;;;0.43;0.32;;;;;;;21.73;100.00;99138.44;10284931;28;20327;-84
2023/10/27 12:44:45;;;;;;;0.17;0.17;;;;;;;21.12;100.00;99149.06;10296618;28;20054;-85
2023/10/27 12:49:47;;;;;;;1.65;0.73;;;;;;;21.82;100.00;99138.81;10263429;28;20138;-85
2023/10/27 12:54:49;;;;;;;1.80;0.85;;;;;;;20.67;100.00;99148.44;10283761;28;20217;-85
2023/10/27 12:59:52;;;;;;;1.00;0.68;;;;;;;21.51;100.00;99152.53;10286647;28;20054;-85
2023/10/27 13:04:56;;;;;;;0.50;0.28;;;;;;;21.35;100.00;99155.88;10283240;28;20047;-84
2023/10/27 13:09:58;;;;;;;1.27;0.88;;;;;;;20.89;100.00;99150.97;10282666;28;20045;-84
2023/10/27 13:15:00;;;;;;;2.38;0.88;;;;;;;20.84;100.00;99145.09;10264853;28;20829;-84
2023/10/27 13:20:02;;;;;;;0.63;0.43;;;;;;;21.93;100.00;99145.31;10284190;28;20069;-84
2023/10/27 13:25:07;;;;;;;0.73;0.52;;;;;;;20.91;100.00;99150.91;10282996;28;20462;-85
2023/10/27 13:30:08;;;;;;;0.10;0.10;;;;;;;21.43;100.00;99146.81;10281836;28;20065;-84
2023/10/27 13:35:10;;;;;;;0.10;0.10;;;;;;;20.91;100.00;99146.50;10282811;28;20900;-85
2023/10/27 13:40:14;;;;;;;0.55;0.40;;;;;;;21.01;100.00;99146.94;10286410;28;20035;-86
2023/10/27 13:45:16;;;;;;;0.85;0.60;;;;;;;20.05;100.00;99155.44;10278074;28;20054;-86
2023/10/27 13:50:18;;;;;;;0.93;0.55;;;;;;;20.70;100.00;99147.44;10282757;28;20073;-85
2023/10/27 13:55:19;;;;;;;0.45;0.40;;;;;;;21.45;100.00;99158.91;10286749;28;20074;-85
2023/10/27 14:00:27;;;;;;;0.32;0.32;;;;;;;21.65;100.00;99159.75;10293357;28;20042;-85
2023/10/27 14:05:28;;;;;;;0.50;0.28;;;;;;;22.14;100.00;99162.63;10288720;28;20110;-85
2023/10/27 14:10:30;;;;;;;0.00;0.00;;;;;;;21.16;100.00;99166.34;10291877;28;20055;-84
2023/10/27 14:15:33;;;;;;;0.10;0.10;;;;;;;20.52;100.00;99172.63;10291654;28;20190;-84
2023/10/27 14:20:34;;;;;;;0.00;0.00;;;;;;;20.46;100.00;99173.75;10283544;28;20102;-85
2023/10/27 14:25:36;;;;;;;0.20;0.20;;;;;;;21.38;100.00;99170.59;10289410;28;20046;-85
2023/10/27 14:30:38;;;;;;;0.15;0.15;;;;;;;20.77;100.00;99180.28;10288776;28;20046;-85
2023/10/27 14:35:41;;;;;;;1.02;0.13;;;;;;;20.69;100.00;99177.13;10289460;28;20101;-86
2023/10/27 14:40:55;;;;;;;0.20;0.20;;;;;;;21.32;100.00;99186.59;10287967;28;20057;-85
2023/10/27 14:45:58;;;;;;;0.25;0.13;;;;;;;21.17;100.00;99191.63;10287321;28;20046;-85
2023/10/27 14:51:03;;;;;;;0.00;0.00;;;;;;;20.89;100.00;99192.84;10281634;28;20381;-85
2023/10/27 14:56:10;;;;;;;0.20;0.15;;;;;;;20.07;100.00;99195.41;10296678;28;20054;-85
2023/10/27 15:01:15;;;;;;;0.05;0.05;;;;;;;20.23;100.00;99199.09;10289946;28;20050;-85
2023/10/27 15:06:21;;;;;;;0.00;0.00;;;;;;;20.56;100.00;99189.88;10294025;28;20057;-84
2023/10/27 15:11:22;;;;;;;0.10;0.10;;;;;;;20.27;100.00;99203.28;10288682;28;20070;-84
2023/10/27 15:16:24;;;;;;;0.08;0.08;;;;;;;20.05;100.00;99205.94;10285044;28;20469;-85
2023/10/27 15:21:25;;;;;;;0.00;0.00;;;;;;;19.48;100.00;99214.22;10287360;28;20129;-85
2023/10/27 15:26:27;;;;;;;0.00;0.00;;;;;;;19.33;100.00;99213.00;10287271;28;20055;-87
2023/10/27 15:31:29;;;;;;;0.00;0.00;;;;;;;20.43;100.00;99200.88;10272075;28;20533;-86
2023/10/27 15:36:30;;;;;;;0.00;0.00;;;;;;;21.17;100.00;99199.47;10272777;28;20420;-84
2023/10/27 15:41:34;;;;;;;0.57;0.10;;;;;;;20.26;100.00;99206.81;10287539;28;20099;-85
2023/10/27 15:46:38;;;;;;;0.00;0.00;;;;;;;19.93;100.00;99209.88;10282807;28;20101;-84
2023/10/27 15:51:39;;;;;;;0.00;0.00;;;;;;;19.40;100.00;99223.25;10295872;28;20047;-85
2023/10/27 15:56:41;;;;;;;0.10;0.10;;;;;;;18.81;100.00;99222.69;10267267;28;20403;-85
2023/10/27 16:01:43;;;;;;;0.70;0.10;;;;;;;20.05;100.00;99219.00;10289990;28;20042;-85
2023/10/27 16:06:45;;;;;;;0.52;0.20;;;;;;;20.26;100.00;99225.13;10288595;28;20399;-85
2023/10/27 16:11:46;;;;;;;0.00;0.00;;;;;;;19.59;100.00;99232.09;10265660;28;20077;-86
2023/10/27 16:16:49;;;;;;;0.40;0.22;;;;;;;19.16;100.00;99233.69;10282929;28;20062;-84
2023/10/27 16:21:51;;;;;;;0.03;0.03;;;;;;;19.53;100.00;99232.31;10288267;28;20057;-85
2023/10/27 16:26:53;;;;;;;0.17;0.00;;;;;;;19.80;100.00;99229.53;10269873;28;20126;-85
2023/10/27 16:31:54;;;;;;;0.47;0.10;;;;;;;20.34;100.00;99240.50;10273881;28;20457;-85
2023/10/27 16:36:56;;;;;;;1.00;0.52;;;;;;;20.55;100.00;99230.91;10285914;28;20505;-85
2023/10/27 16:41:57;;;;;;;0.20;0.20;;;;;;;20.38;100.00;99246.44;10284976;28;20053;-84
2023/10/27 16:46:59;;;;;;;0.20;0.20;;;;;;;20.33;100.00;99248.41;10288410;28;20514;-85
2023/10/27 16:52:00;;;;;;;0.13;0.10;;;;;;;20.06;100.00;99251.25;10287079;28;20101;-85
2023/10/27 16:57:02;;;;;;;1.08;0.70;;;;;;;20.68;100.00;99260.03;10280483;28;20047;-86
2023/10/27 17:02:09;;;;;;;0.17;0.17;;;;;;;20.89;100.00;99252.19;10293881;28;20605;-87
2023/10/27 17:07:11;;;;;;;0.20;0.20;;;;;;;21.27;100.00;99252.28;10291471;28;20051;-86
2023/10/27 17:12:13;;;;;;;0.45;0.30;;;;;;;20.58;100.00;99259.56;10288760;28;20043;-86
2023/10/27 17:17:14;;;;;;;0.20;0.20;;;;;;;20.08;100.00;99272.91;10290687;28;20129;-86
2023/10/27 17:22:17;;;;;;;1.33;0.22;;;;;;;20.63;100.00;99276.81;10272856;28;20426;-87
2023/10/27 17:27:20;;;;;;;0.15;0.15;;;;;;;19.83;100.00;99286.94;10279638;28;20050;-85
2023/10/27 17:32:22;;;;;;;0.40;0.40;;;;;;;19.55;100.00;99282.72;10279566;28;20110;-84
2023/10/27 17:37:23;;;;;;;0.52;0.47;;;;;;;19.66;100.00;99291.03;10290519;28;20046;-84
2023/10/27 17:42:26;;;;;;;0.30;0.30;;;;;;;19.77;100.00;99292.38;10294113;28;20067;-84
2023/10/27 17:47:28;;;;;;;0.30;0.20;;;;;;;20.10;100.00;99294.63;10276118;28;20600;-84
2023/10/27 17:52:29;;;;;;;2.80;0.55;;;;;;;20.04;100.00;99295.72;10269067;28;20063;-84
2023/10/27 17:57:31;;;;;;;2.10;0.98;;;;;;;19.64;100.00;99297.22;10292721;28;20114;-85
2023/10/27 18:02:33;;;;;;;0.80;0.80;;;;;;;20.38;100.00;99289.16;10300973;28;20101;-86
2023/10/27 18:07:35;;;;;;;0.32;0.32;;;;;;;19.65;100.00;99310.22;10298929;28;20613;-85
2023/10/27 18:12:36;;;;;;;0.50;0.50;;;;;;;20.19;100.00;99299.50;10274857;28;20085;-85
2023/10/27 18:17:38;;;;;;;2.17;0.88;;;;;;;19.94;100.00;99300.44;10295563;28;20469;-85
2023/10/27 18:22:41;;;;;;;1.38;1.08;;;;;;;19.95;100.00;99302.16;10293737;28;20081;-86
2023/10/27 18:27:43;;;;;;;1.55;0.50;;;;;;;20.23;100.00;99295.84;10290871;28;20043;-86
2023/10/27 18:32:45;;;;;;;0.05;0.05;;;;;;;20.51;100.00;99297.38;10287999;28;20042;-85
2023/10/27 18:37:47;;;;;;;0.10;0.10;;;;;;;20.53;100.00;99294.69;10268091;28;20045;-85
2023/10/27 18:42:49;;;;;;;0.20;0.20;;;;;;;21.24;100.00;99292.56;10283945;28;20514;-85
2023/10/27 18:47:52;;;;;;;0.52;0.38;;;;;;;20.82;100.00;99295.25;10288112;28;20524;-85
2023/10/27 18:52:56;;;;;;;0.98;0.60;;;;;;;20.94;100.00;99297.34;10296798;28;20498;-86
2023/10/27 18:57:57;;;;;;;3.60;0.75;;;;;;;20.37;100.00;99302.28;10272299;28;20054;-85
2023/10/27 19:02:59;;;;;;;0.35;0.22;;;;;;;20.64;100.00;99304.69;10289650;28;20840;-86
2023/10/27 19:08:00;;;;;;;1.38;0.45;;;;;;;19.65;100.00;99305.00;10296910;28;20494;-86
2023/10/27 19:13:07;;;;;;;1.33;0.60;;;;;;;19.63;100.00;99312.03;10278038;28;20054;-86
2023/10/27 19:18:09;;;;;;;0.60;0.40;;;;;;;20.23;100.00;99310.69;10283410;28;20142;-86
2023/10/27 19:23:10;;;;;;;0.75;0.50;;;;;;;19.90;100.00;99314.56;10275754;28;20061;-84
2023/10/27 19:28:12;;;;;;;0.70;0.60;;;;;;;19.64;100.00;99331.19;10273282;28;20053;-86
2023/10/27 19:33:14;;;;;;;0.65;0.40;;;;;;;20.45;100.00;99321.13;10271977;28;20105;-85
2023/10/27 19:38:15;;;;;;;1.08;0.98;;;;;;;20.21;100.00;99323.84;10287629;28;20043;-85
2023/10/27 19:43:17;;;;;;;1.60;0.82;;;;;;;20.41;100.00;99327.41;10287514;28;20580;-84
2023/10/27 19:48:18;;;;;;;1.92;0.75;;;;;;;19.71;100.00;99334.41;10281147;28;20046;-85
2023/10/27 19:53:20;;;;;;;1.88;1.60;;;;;;;19.96;100.00;99344.81;10278875;28;20113;-85
2023/10/27 19:58:21;;;;;;;3.13;0.47;;;;;;;19.80;100.00;99350.63;10282694;28;20469;-85
2023/10/27 20:03:23;;;;;;;3.17;1.02;;;;;;;20.11;100.00;99359.09;10269844;28;20133;-85
2023/10/27 20:08:28;;;;;;;0.95;0.68;;;;;;;19.95;100.00;99359.66;10291409;28;20054;-85
2023/10/27 20:13:29;;;;;;;2.50;1.45;;;;;;;19.71;100.00;99365.75;10278123;28;20395;-85
2023/10/27 20:18:31;;;;;;;4.18;1.08;;;;;;;19.45;100.00;99370.16;10279509;28;20047;-86
2023/10/27 20:23:33;;;;;;;0.70;0.70;;;;;;;19.24;100.00;99382.19;10288757;28;20133;-85
2023/10/27 20:28:34;;;;;;;8.30;1.65;;;;;;;18.65;100.00;99384.94;10273004;28;20414;-85
2023/10/27 20:33:36;;;;;;;1.98;1.05;;;;;;;18.80;100.00;99382.78;10275314;28;20045;-86
2023/10/27 20:38:38;;;;;;;0.93;0.70;;;;;;;18.82;100.00;99388.78;10268847;28;20526;-86
2023/10/27 20:43:39;;;;;;;1.75;1.15;;;;;;;19.33;100.00;99385.34;10284274;28;20042;-86
2023/10/27 20:48:41;;;;;;;0.30;0.15;;;;;;;18.83;100.00;99391.34;10284478;28;20105;-84
2023/10/27 20:53:42;;;;;;;0.28;0.25;;;;;;;19.01;100.00;99387.31;10268049;28;20109;-85
2023/10/27 20:58:44;;;;;;;0.65;0.50;;;;;;;19.82;100.00;99381.91;10283072;28;20418;-85
2023/10/27 21:03:47;;;;;;;0.93;0.63;;;;;;;18.99;100.00;99389.13;10289149;28;20045;-84
2023/10/27 21:08:50;;;;;;;0.63;0.52;;;;;;;18.67;100.00;99396.19;10287141;28;20046;-86
2023/10/27 21:13:52;;;;;;;2.67;1.13;;;;;;;17.74;100.00;99396.31;10303696;28;20047;-86
2023/10/27 21:18:53;;;;;;;0.20;0.20;;;;;;;17.91;100.00;99402.75;10286026;28;20047;-85
2023/10/27 21:23:55;;;;;;;0.35;0.20;;;;;;;18.10;100.00;99405.72;10313098;28;20046;-86
2023/10/27 21:28:57;;;;;;;0.47;0.20;;;;;;;18.14;100.00;99404.75;10296843;28;20074;-85
2023/10/27 21:33:58;;;;;;;0.73;0.55;;;;;;;18.74;100.00;99406.41;10279382;28;20110;-85
2023/10/27 21:39:00;;;;;;;0.10;0.10;;;;;;;18.39;100.00;99407.47;10279144;28;20057;-84
2023/10/27 21:44:02;;;;;;;1.08;0.50;;;;;;;17.91;100.00;99408.84;10272287;28;20074;-84
2023/10/27 21:49:04;;;;;;;0.30;0.30;;;;;;;18.19;100.00;99412.44;10284579;28;20051;-85
2023/10/27 21:54:06;;;;;;;0.30;0.10;;;;;;;17.89;100.00;99420.22;10276288;28;20127;-85
2023/10/27 21:59:07;;;;;;;0.50;0.50;;;;;;;17.92;100.00;99418.38;10279046;28;20051;-86
2023/10/27 22:04:09;;;;;;;3.53;1.05;;;;;;;18.47;100.00;99422.88;10275706;28;20050;-85
2023/10/27 22:09:21;;;;;;;0.03;0.03;;;;;;;18.75;100.00;99416.81;10291188;28;20043;-84
2023/10/27 22:14:23;;;;;;;0.82;0.45;;;;;;;18.51;100.00;99413.22;10272395;28;20054;-86
2023/10/27 22:19:25;;;;;;;0.28;0.28;;;;;;;18.78;100.00;99413.25;10304592;28;20042;-85
2023/10/27 22:24:26;;;;;;;0.00;0.00;;;;;;;18.96;100.00;99412.69;10304490;28;20059;-85
2023/10/27 22:29:28;;;;;;;0.30;0.28;;;;;;;18.93;100.00;99417.16;10285767;28;20449;-86
2023/10/27 22:34:29;;;;;;;0.00;0.00;;;;;;;18.70;100.00;99424.78;10297063;28;20545;-85
2023/10/27 22:39:31;;;;;;;0.25;0.15;;;;;;;18.92;100.00;99418.94;10281598;28;20138;-86
2023/10/27 22:44:33;;;;;;;0.20;0.10;;;;;;;19.15;100.00;99417.31;10273457;28;20145;-85
2023/10/27 22:49:34;;;;;;;0.00;0.00;;;;;;;18.26;100.00;99408.75;10286450;28;20051;-85
2023/10/27 22:54:36;;;;;;;0.43;0.35;;;;;;;17.74;100.00;99413.66;10286656;28;20046;-85
2023/10/27 22:59:37;;;;;;;0.50;0.17;;;;;;;18.27;100.00;99420.03;10287257;28;20046;-84
2023/10/27 23:04:39;;;;;;;0.40;0.35;;;;;;;17.53;100.00;99430.75;10267830;28;20054;-85
2023/10/27 23:09:41;;;;;;;0.75;0.45;;;;;;;18.04;100.00;99424.16;10289172;28;20039;-85
2023/10/27 23:14:44;;;;;;;1.40;0.45;;;;;;;18.18;100.00;99421.16;10270129;28;20082;-85